Artemis — SWZE — position and weather

sailwx.info

Track history (hours):
 
Tides and Currents Weather Stations Pressure Air Temp Water Temp Dewpoint Dewpoint Depression Visibility Wind Speed Wind Dir Waves Ship Positions

Artemis

Last reported at 2015-Aug-31 05:15 UTC. Time now 2015-Aug-31 13:18 UTC.
Position N 37°31' E 024°44'.

Length 89 m.

Type: Ship. MMSI: 237026300.

Date/timePositionNaut miles runAvg speedWind from/ knotsBaromVisibWave heightAir tempDewpointWater temp
2015-Aug-31 05:15N 37°31' E 024°44'1014.1
2015-Aug-31 04:33N 37°30' E 024°56'4 3.9
2015-Aug-31 03:33N 37°27' E 024°57'0 0.0
2015-Aug-31 02:32N 37°27' E 024°57'0 0.0
2015-Aug-31 01:33N 37°27' E 024°57'0 0.0
2015-Aug-31 00:33N 37°27' E 024°57'0 0.0
2015-Aug-30 23:33N 37°27' E 024°57'0 0.0
2015-Aug-30 22:33N 37°27' E 024°57'0 0.0
2015-Aug-30 21:33N 37°27' E 024°57'0 0.0
2015-Aug-30 20:30N 37°27' E 024°57'0 0.0
2015-Aug-30 19:33N 37°27' E 024°57'6 5.7
2015-Aug-30 18:33N 37°21' E 024°60'1414.1
2015-Aug-30 17:33N 37°08' E 025°06'4 4.5
2015-Aug-30 16:34N 37°07' E 025°01'9 1.0
2015-Aug-30 07:09N 37°08' E 024°49'814.1
2015-Aug-30 06:33N 37°06' E 024°60'5 5.3
2015-Aug-30 05:34N 37°08' E 025°06'1414.1
2015-Aug-30 04:33N 37°21' E 025°00'6 6.2
2015-Aug-30 03:33N 37°27' E 024°57'0 0.0
2015-Aug-30 02:33N 37°27' E 024°57'0 0.0
2015-Aug-30 01:33N 37°27' E 024°57'0 0.0
2015-Aug-30 00:31N 37°27' E 024°57'0 0.0
2015-Aug-29 23:33N 37°27' E 024°57'0 0.0
2015-Aug-29 22:33N 37°27' E 024°57'0 0.0
2015-Aug-29 21:33N 37°27' E 024°57'0 0.0
2015-Aug-29 20:33N 37°27' E 024°57'0 0.0
2015-Aug-29 19:33N 37°27' E 024°57'0 0.0
2015-Aug-29 18:33N 37°27' E 024°57'0 0.0
2015-Aug-29 17:33N 37°27' E 024°57'0 0.0
2015-Aug-29 16:33N 37°27' E 024°57'0 0.0
2015-Aug-29 15:33N 37°27' E 024°57'0 0.1
2015-Aug-29 14:33N 37°26' E 024°57'9 8.9
2015-Aug-29 13:33N 37°18' E 025°02'1414.2
2015-Aug-29 12:33N 37°05' E 025°08'8 8.2
2015-Aug-29 11:33N 37°11' E 025°16'6 6.2
2015-Aug-29 10:33N 37°06' E 025°21'3010.1
2015-Aug-29 07:33N 36°38' E 025°05'7 0.5
2015-Aug-28 17:17N 36°37' E 024°57'7 9.8
2015-Aug-28 16:33N 36°38' E 025°06'23 9.6
2015-Aug-28 14:10N 36°59' E 025°17'813.2
2015-Aug-28 13:33N 37°06' E 025°22'8 7.5
2015-Aug-28 12:33N 37°10' E 025°14'6 6.3
2015-Aug-28 11:34N 37°07' E 025°06'1514.6
2015-Aug-28 10:34N 37°21' E 025°00'8 8.0
2015-Aug-28 09:33N 37°29' E 024°57'11 0.5
2015-Aug-27 11:12N 37°33' E 024°44'914.3
2015-Aug-27 10:33N 37°31' E 024°56'7 7.3
2015-Aug-27 09:33N 37°24' E 024°59'11 0.5
2015-Aug-26 12:34N 37°19' E 024°46'1111.3
2015-Aug-26 11:33N 37°27' E 024°57'0 0.1
2015-Aug-26 10:33N 37°27' E 024°57'6 5.9
2015-Aug-26 09:34N 37°29' E 025°03'7 6.5
2015-Aug-26 08:33N 37°36' E 025°02'6 2.0
2015-Aug-26 05:33N 37°40' E 024°57'1212.5
2015-Aug-26 04:33N 37°32' E 025°09'1211.7
2015-Aug-26 03:34N 37°27' E 024°57'0 0.0
2015-Aug-26 02:34N 37°27' E 024°57'0 0.0
2015-Aug-26 01:34N 37°27' E 024°57'0 0.0
2015-Aug-26 00:34N 37°27' E 024°57'0 0.0
2015-Aug-25 23:33N 37°27' E 024°57'0 0.0
2015-Aug-25 22:33N 37°27' E 024°57'0 0.0
2015-Aug-25 21:33N 37°27' E 024°57'0 0.0
2015-Aug-25 20:34N 37°27' E 024°57'0 0.5
2015-Aug-25 19:33N 37°26' E 024°57'1413.7
2015-Aug-25 18:33N 37°13' E 025°03'9 9.4
2015-Aug-25 17:33N 37°05' E 025°09'1313.5
2015-Aug-25 16:34N 37°09' E 024°53'4 0.5
2015-Aug-25 07:20N 37°10' E 024°47'1114.5
2015-Aug-25 06:34N 37°07' E 025°01'4 4.2
2015-Aug-25 05:33N 37°07' E 025°06'1414.3
2015-Aug-25 04:33N 37°21' E 025°00'6 6.4
2015-Aug-25 03:33N 37°27' E 024°57'0 0.0
2015-Aug-25 02:32N 37°27' E 024°57'0 0.0
2015-Aug-25 01:33N 37°27' E 024°57'0 0.0
2015-Aug-25 00:33N 37°27' E 024°57'0 0.0
2015-Aug-24 23:32N 37°27' E 024°57'0 0.0
2015-Aug-24 22:31N 37°27' E 024°57'0 0.0
2015-Aug-24 21:34N 37°27' E 024°57'0 0.0
2015-Aug-24 20:33N 37°27' E 024°57'0 0.4
2015-Aug-24 19:33N 37°27' E 024°57'1211.6
2015-Aug-24 18:33N 37°32' E 024°44'30 7.3
2015-Aug-24 14:22N 37°39' E 024°07'0 0.0
2015-Aug-24 09:24N 37°38' E 024°07'30 7.2
2015-Aug-24 05:11N 37°31' E 024°44'1014.0
2015-Aug-24 04:30N 37°30' E 024°56'4 4.3
2015-Aug-24 03:33N 37°26' E 024°56'0 0.0
2015-Aug-24 02:33N 37°26' E 024°56'0 0.0
2015-Aug-24 01:34N 37°26' E 024°56'0 0.0
2015-Aug-24 00:33N 37°26' E 024°56'0 0.0
2015-Aug-23 23:33N 37°26' E 024°56'0 0.0
2015-Aug-23 22:33N 37°26' E 024°56'0 0.0
2015-Aug-23 21:34N 37°26' E 024°56'0 0.0
2015-Aug-23 20:33N 37°26' E 024°56'0 0.0
2015-Aug-23 19:33N 37°26' E 024°56'8 7.9
2015-Aug-23 18:34N 37°19' E 025°00'1414.4
2015-Aug-23 17:33N 37°06' E 025°07'8 8.4
2015-Aug-23 16:33N 37°07' E 024°57'9 1.0
2015-Aug-23 07:24N 37°08' E 024°46'1214.2
2015-Aug-23 06:34N 37°06' E 025°01'4 4.2
2015-Aug-23 05:33N 37°07' E 025°06'1414.2
2015-Aug-23 04:33N 37°21' E 025°00'7 6.6
2015-Aug-23 03:34N 37°27' E 024°57'0 0.0
2015-Aug-23 02:33N 37°27' E 024°57'0 0.0
2015-Aug-23 01:33N 37°27' E 024°57'0 0.0
2015-Aug-23 00:33N 37°27' E 024°57'0 0.0
2015-Aug-22 23:33N 37°27' E 024°57'0 0.0
2015-Aug-22 22:33N 37°27' E 024°57'0 0.0
2015-Aug-22 21:33N 37°27' E 024°57'0 0.0
2015-Aug-22 20:33N 37°27' E 024°57'0 0.0
2015-Aug-22 19:33N 37°27' E 024°57'0 0.0
2015-Aug-22 18:33N 37°27' E 024°57'0 0.0
2015-Aug-22 17:33N 37°27' E 024°57'0 0.0
2015-Aug-22 16:33N 37°27' E 024°57'0 0.0
2015-Aug-22 15:33N 37°27' E 024°57'0 0.0
2015-Aug-22 14:21N 37°27' E 024°57'6 7.5
2015-Aug-22 13:33N 37°21' E 024°60'1414.3
2015-Aug-22 12:33N 37°08' E 025°06'5 4.8
2015-Aug-22 11:33N 37°09' E 025°12'9 8.5
2015-Aug-22 10:34N 37°06' E 025°22'3110.1
2015-Aug-22 07:31N 36°38' E 025°06'1 0.1
2015-Aug-21 16:33N 36°38' E 025°05'24 9.6
2015-Aug-21 14:04N 36°59' E 025°17'714.1
2015-Aug-21 13:33N 37°06' E 025°21'6 6.3
2015-Aug-21 12:33N 37°10' E 025°15'7 7.1
2015-Aug-21 11:33N 37°06' E 025°07'1414.3
2015-Aug-21 10:33N 37°19' E 025°01'8 8.2
2015-Aug-21 09:33N 37°26' E 024°57'9 9.5
2015-Aug-21 08:34N 37°30' E 024°46'  
Track history (hours):
 
Tides and Currents Weather Stations Pressure Air Temp Water Temp Dewpoint Dewpoint Depression Visibility Wind Speed Wind Dir Waves Ship Positions

Artemis

Last reported at 2015-Aug-31 05:15 UTC. Time now 2015-Aug-31 13:18 UTC.
Position N 37°31' E 024°44'.

Length 89 m.

Type: Ship. MMSI: 237026300.

Date/timePositionNaut miles runAvg speedWind from/ knotsBaromVisibWave heightAir tempDewpointWater temp
2015-Aug-31 05:15N 37°31' E 024°44'1014.1
2015-Aug-31 04:33N 37°30' E 024°56'4 3.9
2015-Aug-31 03:33N 37°27' E 024°57'0 0.0
2015-Aug-31 02:32N 37°27' E 024°57'0 0.0
2015-Aug-31 01:33N 37°27' E 024°57'0 0.0
2015-Aug-31 00:33N 37°27' E 024°57'0 0.0
2015-Aug-30 23:33N 37°27' E 024°57'0 0.0
2015-Aug-30 22:33N 37°27' E 024°57'0 0.0
2015-Aug-30 21:33N 37°27' E 024°57'0 0.0
2015-Aug-30 20:30N 37°27' E 024°57'0 0.0
2015-Aug-30 19:33N 37°27' E 024°57'6 5.7
2015-Aug-30 18:33N 37°21' E 024°60'1414.1
2015-Aug-30 17:33N 37°08' E 025°06'4 4.5
2015-Aug-30 16:34N 37°07' E 025°01'9 1.0
2015-Aug-30 07:09N 37°08' E 024°49'814.1
2015-Aug-30 06:33N 37°06' E 024°60'5 5.3
2015-Aug-30 05:34N 37°08' E 025°06'1414.1
2015-Aug-30 04:33N 37°21' E 025°00'6 6.2
2015-Aug-30 03:33N 37°27' E 024°57'0 0.0
2015-Aug-30 02:33N 37°27' E 024°57'0 0.0
2015-Aug-30 01:33N 37°27' E 024°57'0 0.0
2015-Aug-30 00:31N 37°27' E 024°57'0 0.0
2015-Aug-29 23:33N 37°27' E 024°57'0 0.0
2015-Aug-29 22:33N 37°27' E 024°57'0 0.0
2015-Aug-29 21:33N 37°27' E 024°57'0 0.0
2015-Aug-29 20:33N 37°27' E 024°57'0 0.0
2015-Aug-29 19:33N 37°27' E 024°57'0 0.0
2015-Aug-29 18:33N 37°27' E 024°57'0 0.0
2015-Aug-29 17:33N 37°27' E 024°57'0 0.0
2015-Aug-29 16:33N 37°27' E 024°57'0 0.0
2015-Aug-29 15:33N 37°27' E 024°57'0 0.1
2015-Aug-29 14:33N 37°26' E 024°57'9 8.9
2015-Aug-29 13:33N 37°18' E 025°02'1414.2
2015-Aug-29 12:33N 37°05' E 025°08'8 8.2
2015-Aug-29 11:33N 37°11' E 025°16'6 6.2
2015-Aug-29 10:33N 37°06' E 025°21'3010.1
2015-Aug-29 07:33N 36°38' E 025°05'7 0.5
2015-Aug-28 17:17N 36°37' E 024°57'7 9.8
2015-Aug-28 16:33N 36°38' E 025°06'23 9.6
2015-Aug-28 14:10N 36°59' E 025°17'813.2
2015-Aug-28 13:33N 37°06' E 025°22'8 7.5
2015-Aug-28 12:33N 37°10' E 025°14'6 6.3
2015-Aug-28 11:34N 37°07' E 025°06'1514.6
2015-Aug-28 10:34N 37°21' E 025°00'8 8.0
2015-Aug-28 09:33N 37°29' E 024°57'11 0.5
2015-Aug-27 11:12N 37°33' E 024°44'914.3
2015-Aug-27 10:33N 37°31' E 024°56'7 7.3
2015-Aug-27 09:33N 37°24' E 024°59'11 0.5
2015-Aug-26 12:34N 37°19' E 024°46'1111.3
2015-Aug-26 11:33N 37°27' E 024°57'0 0.1
2015-Aug-26 10:33N 37°27' E 024°57'6 5.9
2015-Aug-26 09:34N 37°29' E 025°03'7 6.5
2015-Aug-26 08:33N 37°36' E 025°02'6 2.0
2015-Aug-26 05:33N 37°40' E 024°57'1212.5
2015-Aug-26 04:33N 37°32' E 025°09'1211.7
2015-Aug-26 03:34N 37°27' E 024°57'0 0.0
2015-Aug-26 02:34N 37°27' E 024°57'0 0.0
2015-Aug-26 01:34N 37°27' E 024°57'0 0.0
2015-Aug-26 00:34N 37°27' E 024°57'0 0.0
2015-Aug-25 23:33N 37°27' E 024°57'0 0.0
2015-Aug-25 22:33N 37°27' E 024°57'0 0.0
2015-Aug-25 21:33N 37°27' E 024°57'0 0.0
2015-Aug-25 20:34N 37°27' E 024°57'0 0.5
2015-Aug-25 19:33N 37°26' E 024°57'1413.7
2015-Aug-25 18:33N 37°13' E 025°03'9 9.4
2015-Aug-25 17:33N 37°05' E 025°09'1313.5
2015-Aug-25 16:34N 37°09' E 024°53'4 0.5
2015-Aug-25 07:20N 37°10' E 024°47'1114.5
2015-Aug-25 06:34N 37°07' E 025°01'4 4.2
2015-Aug-25 05:33N 37°07' E 025°06'1414.3
2015-Aug-25 04:33N 37°21' E 025°00'6 6.4
2015-Aug-25 03:33N 37°27' E 024°57'0 0.0
2015-Aug-25 02:32N 37°27' E 024°57'0 0.0
2015-Aug-25 01:33N 37°27' E 024°57'0 0.0
2015-Aug-25 00:33N 37°27' E 024°57'0 0.0
2015-Aug-24 23:32N 37°27' E 024°57'0 0.0
2015-Aug-24 22:31N 37°27' E 024°57'0 0.0
2015-Aug-24 21:34N 37°27' E 024°57'0 0.0
2015-Aug-24 20:33N 37°27' E 024°57'0 0.4
2015-Aug-24 19:33N 37°27' E 024°57'1211.6
2015-Aug-24 18:33N 37°32' E 024°44'30 7.3
2015-Aug-24 14:22N 37°39' E 024°07'0 0.0
2015-Aug-24 09:24N 37°38' E 024°07'30 7.2
2015-Aug-24 05:11N 37°31' E 024°44'1014.0
2015-Aug-24 04:30N 37°30' E 024°56'4 4.3
2015-Aug-24 03:33N 37°26' E 024°56'0 0.0
2015-Aug-24 02:33N 37°26' E 024°56'0 0.0
2015-Aug-24 01:34N 37°26' E 024°56'0 0.0
2015-Aug-24 00:33N 37°26' E 024°56'0 0.0
2015-Aug-23 23:33N 37°26' E 024°56'0 0.0
2015-Aug-23 22:33N 37°26' E 024°56'0 0.0
2015-Aug-23 21:34N 37°26' E 024°56'0 0.0
2015-Aug-23 20:33N 37°26' E 024°56'0 0.0
2015-Aug-23 19:33N 37°26' E 024°56'8 7.9
2015-Aug-23 18:34N 37°19' E 025°00'1414.4
2015-Aug-23 17:33N 37°06' E 025°07'8 8.4
2015-Aug-23 16:33N 37°07' E 024°57'9 1.0
2015-Aug-23 07:24N 37°08' E 024°46'1214.2
2015-Aug-23 06:34N 37°06' E 025°01'4 4.2
2015-Aug-23 05:33N 37°07' E 025°06'1414.2
2015-Aug-23 04:33N 37°21' E 025°00'7 6.6
2015-Aug-23 03:34N 37°27' E 024°57'0 0.0
2015-Aug-23 02:33N 37°27' E 024°57'0 0.0
2015-Aug-23 01:33N 37°27' E 024°57'0 0.0
2015-Aug-23 00:33N 37°27' E 024°57'0 0.0
2015-Aug-22 23:33N 37°27' E 024°57'0 0.0
2015-Aug-22 22:33N 37°27' E 024°57'0 0.0
2015-Aug-22 21:33N 37°27' E 024°57'0 0.0
2015-Aug-22 20:33N 37°27' E 024°57'0 0.0
2015-Aug-22 19:33N 37°27' E 024°57'0 0.0
2015-Aug-22 18:33N 37°27' E 024°57'0 0.0
2015-Aug-22 17:33N 37°27' E 024°57'0 0.0
2015-Aug-22 16:33N 37°27' E 024°57'0 0.0
2015-Aug-22 15:33N 37°27' E 024°57'0 0.0
2015-Aug-22 14:21N 37°27' E 024°57'6 7.5
2015-Aug-22 13:33N 37°21' E 024°60'1414.3
2015-Aug-22 12:33N 37°08' E 025°06'5 4.8
2015-Aug-22 11:33N 37°09' E 025°12'9 8.5
2015-Aug-22 10:34N 37°06' E 025°22'3110.1
2015-Aug-22 07:31N 36°38' E 025°06'1 0.1
2015-Aug-21 16:33N 36°38' E 025°05'24 9.6
2015-Aug-21 14:04N 36°59' E 025°17'714.1
2015-Aug-21 13:33N 37°06' E 025°21'6 6.3
2015-Aug-21 12:33N 37°10' E 025°15'7 7.1
2015-Aug-21 11:33N 37°06' E 025°07'1414.3
2015-Aug-21 10:33N 37°19' E 025°01'8 8.2
2015-Aug-21 09:33N 37°26' E 024°57'9 9.5
2015-Aug-21 08:34N 37°30' E 024°46'  

Dump ship's entire track history